sensor_id;sensor_type;location;lat;lon;timestamp;temperature;humidity
68215;DHT22;55036;52.138;5.236;2022-09-13T00:00:56;19.90;71.30
68215;DHT22;55036;52.138;5.236;2022-09-13T00:03:24;19.90;71.30
68215;DHT22;55036;52.138;5.236;2022-09-13T00:05:51;19.90;71.40
68215;DHT22;55036;52.138;5.236;2022-09-13T00:08:18;19.90;71.40
68215;DHT22;55036;52.138;5.236;2022-09-13T00:10:45;19.90;71.50
68215;DHT22;55036;52.138;5.236;2022-09-13T00:13:13;19.90;71.50
68215;DHT22;55036;52.138;5.236;2022-09-13T00:15:47;19.90;71.50
68215;DHT22;55036;52.138;5.236;2022-09-13T00:18:15;19.90;71.70
68215;DHT22;55036;52.138;5.236;2022-09-13T00:20:42;19.90;71.80
68215;DHT22;55036;52.138;5.236;2022-09-13T00:23:10;19.90;71.90
68215;DHT22;55036;52.138;5.236;2022-09-13T00:25:37;19.90;71.80
68215;DHT22;55036;52.138;5.236;2022-09-13T00:28:03;19.90;71.90
68215;DHT22;55036;52.138;5.236;2022-09-13T00:30:30;19.80;71.80
68215;DHT22;55036;52.138;5.236;2022-09-13T00:32:57;19.50;72.60
68215;DHT22;55036;52.138;5.236;2022-09-13T00:35:24;19.60;72.50
68215;DHT22;55036;52.138;5.236;2022-09-13T00:37:50;19.70;72.50
68215;DHT22;55036;52.138;5.236;2022-09-13T00:40:20;19.80;72.60
68215;DHT22;55036;52.138;5.236;2022-09-13T00:42:47;19.80;72.60
68215;DHT22;55036;52.138;5.236;2022-09-13T00:45:18;19.80;72.70
68215;DHT22;55036;52.138;5.236;2022-09-13T00:47:55;19.70;72.80
68215;DHT22;55036;52.138;5.236;2022-09-13T00:53:17;19.70;73.00
68215;DHT22;55036;52.138;5.236;2022-09-13T01:00:55;19.70;73.20
68215;DHT22;55036;52.138;5.236;2022-09-13T01:03:26;19.70;73.30
68215;DHT22;55036;52.138;5.236;2022-09-13T01:06:00;19.70;73.40
68215;DHT22;55036;52.138;5.236;2022-09-13T01:08:30;19.70;73.60
68215;DHT22;55036;52.138;5.236;2022-09-13T01:10:58;19.70;73.70
68215;DHT22;55036;52.138;5.236;2022-09-13T01:13:29;19.70;73.90
68215;DHT22;55036;52.138;5.236;2022-09-13T01:15:58;19.70;74.00
68215;DHT22;55036;52.138;5.236;2022-09-13T01:18:25;19.70;74.10
68215;DHT22;55036;52.138;5.236;2022-09-13T01:32:03;19.50;74.30
68215;DHT22;55036;52.138;5.236;2022-09-13T01:47:49;19.50;74.90
68215;DHT22;55036;52.138;5.236;2022-09-13T01:50:38;19.40;74.90
68215;DHT22;55036;52.138;5.236;2022-09-13T01:56:09;19.50;75.00
68215;DHT22;55036;52.138;5.236;2022-09-13T02:01:30;19.40;75.40
68215;DHT22;55036;52.138;5.236;2022-09-13T02:04:09;19.40;75.50
68215;DHT22;55036;52.138;5.236;2022-09-13T02:09:27;19.50;75.30
68215;DHT22;55036;52.138;5.236;2022-09-13T02:12:21;19.40;75.60
68215;DHT22;55036;52.138;5.236;2022-09-13T02:14:54;19.40;75.30
68215;DHT22;55036;52.138;5.236;2022-09-13T02:17:28;19.40;75.50
68215;DHT22;55036;52.138;5.236;2022-09-13T02:19:58;19.40;75.40
68215;DHT22;55036;52.138;5.236;2022-09-13T02:22:30;19.40;75.40
68215;DHT22;55036;52.138;5.236;2022-09-13T02:25:13;19.40;75.60
68215;DHT22;55036;52.138;5.236;2022-09-13T02:27:45;19.40;75.60
68215;DHT22;55036;52.138;5.236;2022-09-13T02:30:13;19.40;75.60
68215;DHT22;55036;52.138;5.236;2022-09-13T02:35:29;19.40;75.40
68215;DHT22;55036;52.138;5.236;2022-09-13T02:38:01;19.30;75.60
68215;DHT22;55036;52.138;5.236;2022-09-13T02:40:34;19.40;75.90
68215;DHT22;55036;52.138;5.236;2022-09-13T02:43:20;19.40;76.00
68215;DHT22;55036;52.138;5.236;2022-09-13T02:49:11;19.40;75.70
68215;DHT22;55036;52.138;5.236;2022-09-13T02:59:30;19.40;76.00
68215;DHT22;55036;52.138;5.236;2022-09-13T03:02:05;19.30;76.00
68215;DHT22;55036;52.138;5.236;2022-09-13T03:04:33;19.40;76.10
68215;DHT22;55036;52.138;5.236;2022-09-13T03:07:01;19.30;75.90
68215;DHT22;55036;52.138;5.236;2022-09-13T03:09:30;19.30;75.90
68215;DHT22;55036;52.138;5.236;2022-09-13T03:34:13;19.20;76.40
68215;DHT22;55036;52.138;5.236;2022-09-13T03:36:50;19.10;76.60
68215;DHT22;55036;52.138;5.236;2022-09-13T03:39:25;19.10;76.50
68215;DHT22;55036;52.138;5.236;2022-09-13T03:41:57;19.10;76.60
68215;DHT22;55036;52.138;5.236;2022-09-13T03:44:27;19.10;76.80
68215;DHT22;55036;52.138;5.236;2022-09-13T03:46:57;19.10;76.90
68215;DHT22;55036;52.138;5.236;2022-09-13T03:49:26;19.20;77.00
68215;DHT22;55036;52.138;5.236;2022-09-13T03:51:54;19.10;76.80
68215;DHT22;55036;52.138;5.236;2022-09-13T03:54:27;19.20;76.80
68215;DHT22;55036;52.138;5.236;2022-09-13T03:57:13;19.20;77.10
68215;DHT22;55036;52.138;5.236;2022-09-13T03:59:52;19.20;76.80
68215;DHT22;55036;52.138;5.236;2022-09-13T04:02:20;19.10;76.80
68215;DHT22;55036;52.138;5.236;2022-09-13T04:04:47;19.10;76.80
68215;DHT22;55036;52.138;5.236;2022-09-13T04:07:23;19.10;76.90
68215;DHT22;55036;52.138;5.236;2022-09-13T04:09:50;19.10;77.00
68215;DHT22;55036;52.138;5.236;2022-09-13T04:12:17;19.10;77.10
68215;DHT22;55036;52.138;5.236;2022-09-13T04:14:44;19.10;77.10
68215;DHT22;55036;52.138;5.236;2022-09-13T04:17:11;19.10;77.00
68215;DHT22;55036;52.138;5.236;2022-09-13T04:19:39;19.10;77.10
68215;DHT22;55036;52.138;5.236;2022-09-13T04:22:06;19.10;77.10
68215;DHT22;55036;52.138;5.236;2022-09-13T04:24:33;19.10;77.10
68215;DHT22;55036;52.138;5.236;2022-09-13T04:27:00;19.10;77.20
68215;DHT22;55036;52.138;5.236;2022-09-13T04:29:27;19.10;77.10
68215;DHT22;55036;52.138;5.236;2022-09-13T04:31:54;19.10;77.00
68215;DHT22;55036;52.138;5.236;2022-09-13T04:34:21;19.00;77.00
68215;DHT22;55036;52.138;5.236;2022-09-13T04:36:49;19.00;76.90
68215;DHT22;55036;52.138;5.236;2022-09-13T04:39:17;19.00;77.10
68215;DHT22;55036;52.138;5.236;2022-09-13T04:41:45;19.00;77.20
68215;DHT22;55036;52.138;5.236;2022-09-13T04:44:15;19.00;77.30
68215;DHT22;55036;52.138;5.236;2022-09-13T04:46:42;19.00;77.40
68215;DHT22;55036;52.138;5.236;2022-09-13T04:49:12;19.00;77.50
68215;DHT22;55036;52.138;5.236;2022-09-13T04:51:40;19.00;77.50
68215;DHT22;55036;52.138;5.236;2022-09-13T04:54:08;19.10;77.50
68215;DHT22;55036;52.138;5.236;2022-09-13T04:56:40;19.00;77.50
68215;DHT22;55036;52.138;5.236;2022-09-13T04:59:07;19.00;77.60
68215;DHT22;55036;52.138;5.236;2022-09-13T05:01:36;19.10;77.60
68215;DHT22;55036;52.138;5.236;2022-09-13T05:04:04;19.00;77.40
68215;DHT22;55036;52.138;5.236;2022-09-13T05:06:31;19.00;77.40
68215;DHT22;55036;52.138;5.236;2022-09-13T05:08:58;19.00;77.50
68215;DHT22;55036;52.138;5.236;2022-09-13T05:11:26;19.00;77.60
68215;DHT22;55036;52.138;5.236;2022-09-13T05:13:55;19.00;77.50
68215;DHT22;55036;52.138;5.236;2022-09-13T05:16:24;19.00;77.70
68215;DHT22;55036;52.138;5.236;2022-09-13T05:18:52;19.10;77.70
68215;DHT22;55036;52.138;5.236;2022-09-13T05:21:19;19.10;77.90
68215;DHT22;55036;52.138;5.236;2022-09-13T05:23:54;19.10;77.90
68215;DHT22;55036;52.138;5.236;2022-09-13T05:26:22;19.10;77.90
68215;DHT22;55036;52.138;5.236;2022-09-13T05:28:49;19.10;77.80
68215;DHT22;55036;52.138;5.236;2022-09-13T05:31:22;19.10;77.80
68215;DHT22;55036;52.138;5.236;2022-09-13T05:33:55;19.10;77.80
68215;DHT22;55036;52.138;5.236;2022-09-13T05:36:22;19.10;77.90
68215;DHT22;55036;52.138;5.236;2022-09-13T05:38:48;19.10;77.80
68215;DHT22;55036;52.138;5.236;2022-09-13T05:41:35;19.10;77.90
68215;DHT22;55036;52.138;5.236;2022-09-13T05:44:02;19.10;78.20
68215;DHT22;55036;52.138;5.236;2022-09-13T05:46:38;19.20;78.10
68215;DHT22;55036;52.138;5.236;2022-09-13T05:49:05;19.20;78.10
68215;DHT22;55036;52.138;5.236;2022-09-13T05:51:32;19.20;78.00
68215;DHT22;55036;52.138;5.236;2022-09-13T05:53:58;19.20;78.10
68215;DHT22;55036;52.138;5.236;2022-09-13T05:56:27;19.20;78.20
68215;DHT22;55036;52.138;5.236;2022-09-13T05:58:54;19.30;78.20
68215;DHT22;55036;52.138;5.236;2022-09-13T06:01:23;19.30;78.30
68215;DHT22;55036;52.138;5.236;2022-09-13T06:03:53;19.40;78.30
68215;DHT22;55036;52.138;5.236;2022-09-13T06:06:21;19.40;79.30
68215;DHT22;55036;52.138;5.236;2022-09-13T06:08:52;19.40;78.30
68215;DHT22;55036;52.138;5.236;2022-09-13T06:11:19;19.40;78.40
68215;DHT22;55036;52.138;5.236;2022-09-13T06:13:46;19.50;78.40
68215;DHT22;55036;52.138;5.236;2022-09-13T06:16:14;19.50;78.40
68215;DHT22;55036;52.138;5.236;2022-09-13T06:18:42;19.60;78.40
68215;DHT22;55036;52.138;5.236;2022-09-13T06:21:18;19.60;78.40
68215;DHT22;55036;52.138;5.236;2022-09-13T06:23:52;19.70;78.30
68215;DHT22;55036;52.138;5.236;2022-09-13T06:26:22;19.70;78.30
68215;DHT22;55036;52.138;5.236;2022-09-13T06:28:51;19.70;79.30
68215;DHT22;55036;52.138;5.236;2022-09-13T06:31:20;19.80;78.40
68215;DHT22;55036;52.138;5.236;2022-09-13T06:33:47;19.80;78.30
68215;DHT22;55036;52.138;5.236;2022-09-13T06:36:16;19.80;78.20
68215;DHT22;55036;52.138;5.236;2022-09-13T06:38:45;19.80;78.30
68215;DHT22;55036;52.138;5.236;2022-09-13T06:41:14;19.70;78.10
68215;DHT22;55036;52.138;5.236;2022-09-13T06:43:42;19.80;78.20
68215;DHT22;55036;52.138;5.236;2022-09-13T06:46:11;19.80;78.30
68215;DHT22;55036;52.138;5.236;2022-09-13T06:48:43;19.90;78.30
68215;DHT22;55036;52.138;5.236;2022-09-13T06:51:12;19.90;78.40
68215;DHT22;55036;52.138;5.236;2022-09-13T06:53:40;20.00;78.40
68215;DHT22;55036;52.138;5.236;2022-09-13T06:56:17;20.00;78.40
68215;DHT22;55036;52.138;5.236;2022-09-13T06:58:46;20.10;78.30
68215;DHT22;55036;52.138;5.236;2022-09-13T07:01:15;20.10;78.30
68215;DHT22;55036;52.138;5.236;2022-09-13T07:03:43;20.20;78.30
68215;DHT22;55036;52.138;5.236;2022-09-13T07:06:13;20.20;78.70
68215;DHT22;55036;52.138;5.236;2022-09-13T07:08:48;20.10;78.80
68215;DHT22;55036;52.138;5.236;2022-09-13T07:11:16;20.20;78.50
68215;DHT22;55036;52.138;5.236;2022-09-13T07:13:50;20.30;78.50
68215;DHT22;55036;52.138;5.236;2022-09-13T07:16:18;20.40;78.40
68215;DHT22;55036;52.138;5.236;2022-09-13T07:18:50;20.50;78.40
68215;DHT22;55036;52.138;5.236;2022-09-13T07:21:17;20.50;78.40
68215;DHT22;55036;52.138;5.236;2022-09-13T07:23:44;20.60;78.20
68215;DHT22;55036;52.138;5.236;2022-09-13T07:26:10;20.70;78.30
68215;DHT22;55036;52.138;5.236;2022-09-13T07:28:39;20.80;78.10
68215;DHT22;55036;52.138;5.236;2022-09-13T07:31:18;20.90;78.00
68215;DHT22;55036;52.138;5.236;2022-09-13T07:33:47;21.10;77.80
68215;DHT22;55036;52.138;5.236;2022-09-13T07:36:14;21.20;78.00
68215;DHT22;55036;52.138;5.236;2022-09-13T07:38:42;21.30;77.30
68215;DHT22;55036;52.138;5.236;2022-09-13T07:41:13;21.30;77.10
68215;DHT22;55036;52.138;5.236;2022-09-13T07:43:40;21.30;77.60
68215;DHT22;55036;52.138;5.236;2022-09-13T07:46:09;21.30;77.00
68215;DHT22;55036;52.138;5.236;2022-09-13T07:48:38;21.40;77.10
68215;DHT22;55036;52.138;5.236;2022-09-13T07:51:07;21.50;77.20
68215;DHT22;55036;52.138;5.236;2022-09-13T07:53:35;21.70;77.10
68215;DHT22;55036;52.138;5.236;2022-09-13T07:56:08;21.90;77.00
68215;DHT22;55036;52.138;5.236;2022-09-13T07:58:36;22.10;76.60
68215;DHT22;55036;52.138;5.236;2022-09-13T08:01:20;22.20;75.20
68215;DHT22;55036;52.138;5.236;2022-09-13T08:03:52;22.20;75.40
68215;DHT22;55036;52.138;5.236;2022-09-13T08:06:20;22.20;74.90
68215;DHT22;55036;52.138;5.236;2022-09-13T08:08:47;22.20;74.90
68215;DHT22;55036;52.138;5.236;2022-09-13T08:11:17;22.20;74.40
68215;DHT22;55036;52.138;5.236;2022-09-13T08:13:45;22.10;74.30
68215;DHT22;55036;52.138;5.236;2022-09-13T08:16:13;22.10;74.10
68215;DHT22;55036;52.138;5.236;2022-09-13T08:18:49;22.00;73.90
68215;DHT22;55036;52.138;5.236;2022-09-13T08:21:16;22.10;73.80
68215;DHT22;55036;52.138;5.236;2022-09-13T08:23:44;22.10;74.00
68215;DHT22;55036;52.138;5.236;2022-09-13T08:26:11;22.10;74.10
68215;DHT22;55036;52.138;5.236;2022-09-13T08:28:38;22.20;73.80
68215;DHT22;55036;52.138;5.236;2022-09-13T08:31:11;22.20;73.50
68215;DHT22;55036;52.138;5.236;2022-09-13T08:33:41;22.30;73.30
68215;DHT22;55036;52.138;5.236;2022-09-13T08:36:12;22.30;73.30
68215;DHT22;55036;52.138;5.236;2022-09-13T08:38:43;22.50;73.20
68215;DHT22;55036;52.138;5.236;2022-09-13T08:41:47;22.60;72.90
68215;DHT22;55036;52.138;5.236;2022-09-13T08:44:32;22.80;72.40
68215;DHT22;55036;52.138;5.236;2022-09-13T08:47:30;22.80;72.00
68215;DHT22;55036;52.138;5.236;2022-09-13T08:50:25;23.00;72.00
68215;DHT22;55036;52.138;5.236;2022-09-13T08:56:02;23.40;71.60
68215;DHT22;55036;52.138;5.236;2022-09-13T08:58:54;23.50;70.80
68215;DHT22;55036;52.138;5.236;2022-09-13T09:03:59;23.90;69.40
68215;DHT22;55036;52.138;5.236;2022-09-13T09:06:27;23.80;69.50
68215;DHT22;55036;52.138;5.236;2022-09-13T09:09:04;23.70;68.50
68215;DHT22;55036;52.138;5.236;2022-09-13T09:11:49;23.60;68.50
68215;DHT22;55036;52.138;5.236;2022-09-13T09:14:38;23.40;68.20
68215;DHT22;55036;52.138;5.236;2022-09-13T09:17:13;23.40;68.50
68215;DHT22;55036;52.138;5.236;2022-09-13T09:19:45;23.30;68.50
68215;DHT22;55036;52.138;5.236;2022-09-13T09:22:17;23.30;67.90
68215;DHT22;55036;52.138;5.236;2022-09-13T09:24:45;23.20;68.00
68215;DHT22;55036;52.138;5.236;2022-09-13T09:27:15;23.10;68.00
68215;DHT22;55036;52.138;5.236;2022-09-13T09:29:42;23.10;68.20
68215;DHT22;55036;52.138;5.236;2022-09-13T09:32:37;23.20;68.40
68215;DHT22;55036;52.138;5.236;2022-09-13T09:40:34;23.20;67.80
68215;DHT22;55036;52.138;5.236;2022-09-13T09:43:18;23.10;66.70
68215;DHT22;55036;52.138;5.236;2022-09-13T09:45:46;23.20;67.80
68215;DHT22;55036;52.138;5.236;2022-09-13T09:48:18;23.20;67.80
68215;DHT22;55036;52.138;5.236;2022-09-13T09:50:49;23.30;67.30
68215;DHT22;55036;52.138;5.236;2022-09-13T09:53:17;23.30;66.10
68215;DHT22;55036;52.138;5.236;2022-09-13T09:58:38;23.20;66.70
68215;DHT22;55036;52.138;5.236;2022-09-13T10:01:15;23.20;67.00
68215;DHT22;55036;52.138;5.236;2022-09-13T10:03:50;23.10;66.40
68215;DHT22;55036;52.138;5.236;2022-09-13T10:06:20;23.00;66.90
68215;DHT22;55036;52.138;5.236;2022-09-13T10:11:56;23.00;67.30
68215;DHT22;55036;52.138;5.236;2022-09-13T10:17:27;23.30;67.40
68215;DHT22;55036;52.138;5.236;2022-09-13T10:22:30;23.60;66.60
68215;DHT22;55036;52.138;5.236;2022-09-13T10:25:24;23.70;66.80
68215;DHT22;55036;52.138;5.236;2022-09-13T10:27:53;24.00;66.30
68215;DHT22;55036;52.138;5.236;2022-09-13T10:36:02;24.00;64.80
68215;DHT22;55036;52.138;5.236;2022-09-13T10:38:38;23.90;65.00
68215;DHT22;55036;52.138;5.236;2022-09-13T10:41:22;23.90;64.20
68215;DHT22;55036;52.138;5.236;2022-09-13T10:43:56;23.90;64.20
68215;DHT22;55036;52.138;5.236;2022-09-13T10:46:27;24.00;64.60
68215;DHT22;55036;52.138;5.236;2022-09-13T10:48:54;24.10;64.20
68215;DHT22;55036;52.138;5.236;2022-09-13T10:56:36;24.30;63.20
68215;DHT22;55036;52.138;5.236;2022-09-13T10:59:25;24.10;63.10
68215;DHT22;55036;52.138;5.236;2022-09-13T11:05:12;24.20;63.50
68215;DHT22;55036;52.138;5.236;2022-09-13T11:21:09;25.40;58.70
68215;DHT22;55036;52.138;5.236;2022-09-13T11:35:19;24.60;59.40
68215;DHT22;55036;52.138;5.236;2022-09-13T11:41:11;25.00;59.20
68215;DHT22;55036;52.138;5.236;2022-09-13T11:43:57;25.10;57.50
68215;DHT22;55036;52.138;5.236;2022-09-13T11:46:38;24.80;57.50
68215;DHT22;55036;52.138;5.236;2022-09-13T11:54:46;24.80;58.50
68215;DHT22;55036;52.138;5.236;2022-09-13T11:57:39;25.00;58.10
68215;DHT22;55036;52.138;5.236;2022-09-13T12:00:21;25.20;57.20
68215;DHT22;55036;52.138;5.236;2022-09-13T12:02:58;25.10;56.60
68215;DHT22;55036;52.138;5.236;2022-09-13T12:05:34;24.90;57.30
68215;DHT22;55036;52.138;5.236;2022-09-13T12:08:06;24.70;55.40
68215;DHT22;55036;52.138;5.236;2022-09-13T12:13:17;24.70;56.80
68215;DHT22;55036;52.138;5.236;2022-09-13T12:15:46;25.00;56.90
68215;DHT22;55036;52.138;5.236;2022-09-13T12:18:16;25.20;56.50
68215;DHT22;55036;52.138;5.236;2022-09-13T12:20:49;25.40;54.80
68215;DHT22;55036;52.138;5.236;2022-09-13T12:23:26;25.40;55.80
68215;DHT22;55036;52.138;5.236;2022-09-13T12:26:19;25.50;55.10
68215;DHT22;55036;52.138;5.236;2022-09-13T12:28:47;25.30;54.60
68215;DHT22;55036;52.138;5.236;2022-09-13T12:31:21;25.00;54.50
68215;DHT22;55036;52.138;5.236;2022-09-13T12:33:48;24.80;53.90
68215;DHT22;55036;52.138;5.236;2022-09-13T12:42:20;24.40;53.90
68215;DHT22;55036;52.138;5.236;2022-09-13T12:53:33;25.40;53.10
68215;DHT22;55036;52.138;5.236;2022-09-13T13:01:28;25.30;51.80
68215;DHT22;55036;52.138;5.236;2022-09-13T13:04:25;25.00;51.90
68215;DHT22;55036;52.138;5.236;2022-09-13T13:06:59;25.00;52.50
68215;DHT22;55036;52.138;5.236;2022-09-13T13:12:36;24.70;53.00
68215;DHT22;55036;52.138;5.236;2022-09-13T13:17:52;24.80;52.60
68215;DHT22;55036;52.138;5.236;2022-09-13T13:23:37;24.90;53.60
68215;DHT22;55036;52.138;5.236;2022-09-13T13:46:51;24.80;51.90
68215;DHT22;55036;52.138;5.236;2022-09-13T14:02:45;24.80;51.70
68215;DHT22;55036;52.138;5.236;2022-09-13T14:05:52;24.90;51.20
68215;DHT22;55036;52.138;5.236;2022-09-13T14:19:33;24.80;49.90
68215;DHT22;55036;52.138;5.236;2022-09-13T14:22:19;24.80;49.50
68215;DHT22;55036;52.138;5.236;2022-09-13T14:27:35;24.80;49.90
68215;DHT22;55036;52.138;5.236;2022-09-13T14:30:27;24.60;49.30
68215;DHT22;55036;52.138;5.236;2022-09-13T14:32:54;24.40;48.50
68215;DHT22;55036;52.138;5.236;2022-09-13T14:35:28;24.20;49.30
68215;DHT22;55036;52.138;5.236;2022-09-13T14:38:08;24.20;49.50
68215;DHT22;55036;52.138;5.236;2022-09-13T14:40:35;24.20;49.80
68215;DHT22;55036;52.138;5.236;2022-09-13T14:43:15;24.30;49.70
68215;DHT22;55036;52.138;5.236;2022-09-13T14:45:43;24.40;50.80
68215;DHT22;55036;52.138;5.236;2022-09-13T14:48:20;24.30;49.80
68215;DHT22;55036;52.138;5.236;2022-09-13T14:51:02;24.30;49.30
68215;DHT22;55036;52.138;5.236;2022-09-13T14:53:32;24.30;49.50
68215;DHT22;55036;52.138;5.236;2022-09-13T14:56:19;24.20;48.90
68215;DHT22;55036;52.138;5.236;2022-09-13T14:58:50;24.00;49.40
68215;DHT22;55036;52.138;5.236;2022-09-13T15:01:19;23.90;50.70
68215;DHT22;55036;52.138;5.236;2022-09-13T15:03:48;23.90;49.60
68215;DHT22;55036;52.138;5.236;2022-09-13T15:06:23;23.80;50.20
68215;DHT22;55036;52.138;5.236;2022-09-13T15:08:52;23.70;50.00
68215;DHT22;55036;52.138;5.236;2022-09-13T15:11:32;23.70;50.40
68215;DHT22;55036;52.138;5.236;2022-09-13T15:16:53;23.80;50.20
68215;DHT22;55036;52.138;5.236;2022-09-13T15:21:50;23.60;50.20
68215;DHT22;55036;52.138;5.236;2022-09-13T15:24:24;23.50;50.50
68215;DHT22;55036;52.138;5.236;2022-09-13T15:27:02;23.40;50.80
68215;DHT22;55036;52.138;5.236;2022-09-13T15:29:29;23.40;50.80
68215;DHT22;55036;52.138;5.236;2022-09-13T15:32:01;23.40;51.40
68215;DHT22;55036;52.138;5.236;2022-09-13T15:34:28;23.40;51.50
68215;DHT22;55036;52.138;5.236;2022-09-13T15:37:08;23.40;51.50
68215;DHT22;55036;52.138;5.236;2022-09-13T15:39:49;23.50;51.50
68215;DHT22;55036;52.138;5.236;2022-09-13T15:42:17;23.40;51.20
68215;DHT22;55036;52.138;5.236;2022-09-13T15:44:43;23.30;51.50
68215;DHT22;55036;52.138;5.236;2022-09-13T15:47:17;23.30;51.80
68215;DHT22;55036;52.138;5.236;2022-09-13T15:49:51;23.30;51.90
68215;DHT22;55036;52.138;5.236;2022-09-13T15:52:19;23.30;51.90
68215;DHT22;55036;52.138;5.236;2022-09-13T15:54:47;23.20;51.90
68215;DHT22;55036;52.138;5.236;2022-09-13T15:59:47;23.10;52.10
68215;DHT22;55036;52.138;5.236;2022-09-13T16:02:18;22.90;52.70
68215;DHT22;55036;52.138;5.236;2022-09-13T16:04:45;22.90;53.10
68215;DHT22;55036;52.138;5.236;2022-09-13T16:07:12;22.70;53.70
68215;DHT22;55036;52.138;5.236;2022-09-13T16:09:39;22.60;54.30
68215;DHT22;55036;52.138;5.236;2022-09-13T16:12:06;22.50;55.40
68215;DHT22;55036;52.138;5.236;2022-09-13T16:14:33;22.40;55.30
68215;DHT22;55036;52.138;5.236;2022-09-13T16:17:04;22.40;55.30
68215;DHT22;55036;52.138;5.236;2022-09-13T16:19:32;22.40;55.20
68215;DHT22;55036;52.138;5.236;2022-09-13T16:21:59;22.40;55.20
68215;DHT22;55036;52.138;5.236;2022-09-13T16:24:25;22.40;55.60
68215;DHT22;55036;52.138;5.236;2022-09-13T16:26:53;22.30;55.70
68215;DHT22;55036;52.138;5.236;2022-09-13T16:29:20;22.40;55.80
68215;DHT22;55036;52.138;5.236;2022-09-13T16:31:47;22.30;55.90
68215;DHT22;55036;52.138;5.236;2022-09-13T16:34:13;22.30;55.90
68215;DHT22;55036;52.138;5.236;2022-09-13T16:36:40;22.20;56.00
68215;DHT22;55036;52.138;5.236;2022-09-13T16:39:07;22.20;55.80
68215;DHT22;55036;52.138;5.236;2022-09-13T16:41:33;22.10;55.90
68215;DHT22;55036;52.138;5.236;2022-09-13T16:44:00;22.10;55.90
68215;DHT22;55036;52.138;5.236;2022-09-13T16:46:27;22.10;56.10
68215;DHT22;55036;52.138;5.236;2022-09-13T16:48:55;22.10;55.90
68215;DHT22;55036;52.138;5.236;2022-09-13T16:51:22;22.00;56.10
68215;DHT22;55036;52.138;5.236;2022-09-13T16:53:51;21.90;56.00
68215;DHT22;55036;52.138;5.236;2022-09-13T16:56:20;21.80;56.10
68215;DHT22;55036;52.138;5.236;2022-09-13T16:58:48;21.80;56.10
68215;DHT22;55036;52.138;5.236;2022-09-13T17:01:18;21.70;56.40
68215;DHT22;55036;52.138;5.236;2022-09-13T17:03:45;21.70;56.50
68215;DHT22;55036;52.138;5.236;2022-09-13T17:06:14;21.70;56.30
68215;DHT22;55036;52.138;5.236;2022-09-13T17:08:49;21.60;57.60
68215;DHT22;55036;52.138;5.236;2022-09-13T17:11:17;21.60;56.80
68215;DHT22;55036;52.138;5.236;2022-09-13T17:13:45;21.60;56.80
68215;DHT22;55036;52.138;5.236;2022-09-13T17:16:39;21.60;56.70
68215;DHT22;55036;52.138;5.236;2022-09-13T17:19:18;21.50;56.70
68215;DHT22;55036;52.138;5.236;2022-09-13T17:21:46;21.40;56.90
68215;DHT22;55036;52.138;5.236;2022-09-13T17:24:13;21.40;56.80
68215;DHT22;55036;52.138;5.236;2022-09-13T17:26:43;21.30;56.90
68215;DHT22;55036;52.138;5.236;2022-09-13T17:29:12;21.30;57.10
68215;DHT22;55036;52.138;5.236;2022-09-13T17:31:40;21.20;57.20
68215;DHT22;55036;52.138;5.236;2022-09-13T17:34:11;21.20;57.30
68215;DHT22;55036;52.138;5.236;2022-09-13T17:36:39;21.10;57.40
68215;DHT22;55036;52.138;5.236;2022-09-13T17:39:06;21.00;57.50
68215;DHT22;55036;52.138;5.236;2022-09-13T17:41:33;20.90;57.90
68215;DHT22;55036;52.138;5.236;2022-09-13T17:44:02;20.90;58.00
68215;DHT22;55036;52.138;5.236;2022-09-13T17:46:29;20.90;58.00
68215;DHT22;55036;52.138;5.236;2022-09-13T17:48:58;20.90;57.90
68215;DHT22;55036;52.138;5.236;2022-09-13T17:51:27;20.80;58.00
68215;DHT22;55036;52.138;5.236;2022-09-13T17:54:12;20.70;58.20
68215;DHT22;55036;52.138;5.236;2022-09-13T17:56:41;20.60;58.10
68215;DHT22;55036;52.138;5.236;2022-09-13T17:59:14;20.60;58.30
68215;DHT22;55036;52.138;5.236;2022-09-13T18:01:44;20.60;58.40
68215;DHT22;55036;52.138;5.236;2022-09-13T18:04:12;20.50;58.40
68215;DHT22;55036;52.138;5.236;2022-09-13T18:06:39;20.50;58.90
68215;DHT22;55036;52.138;5.236;2022-09-13T18:09:13;20.40;59.20
68215;DHT22;55036;52.138;5.236;2022-09-13T18:11:40;20.30;59.40
68215;DHT22;55036;52.138;5.236;2022-09-13T18:14:11;20.20;60.00
68215;DHT22;55036;52.138;5.236;2022-09-13T18:16:38;20.10;60.00
68215;DHT22;55036;52.138;5.236;2022-09-13T18:19:05;20.20;60.40
68215;DHT22;55036;52.138;5.236;2022-09-13T18:21:32;20.20;60.40
68215;DHT22;55036;52.138;5.236;2022-09-13T18:23:59;20.30;60.40
68215;DHT22;55036;52.138;5.236;2022-09-13T18:26:30;20.20;60.70
68215;DHT22;55036;52.138;5.236;2022-09-13T18:28:59;20.20;60.70
68215;DHT22;55036;52.138;5.236;2022-09-13T18:31:32;20.20;60.90
68215;DHT22;55036;52.138;5.236;2022-09-13T18:34:01;20.20;61.20
68215;DHT22;55036;52.138;5.236;2022-09-13T18:36:30;20.10;61.20
68215;DHT22;55036;52.138;5.236;2022-09-13T18:38:59;20.10;61.10
68215;DHT22;55036;52.138;5.236;2022-09-13T18:41:36;20.10;61.30
68215;DHT22;55036;52.138;5.236;2022-09-13T18:44:07;20.10;61.00
68215;DHT22;55036;52.138;5.236;2022-09-13T18:46:35;20.00;61.10
68215;DHT22;55036;52.138;5.236;2022-09-13T18:49:04;20.10;61.20
68215;DHT22;55036;52.138;5.236;2022-09-13T18:51:35;20.00;61.30
68215;DHT22;55036;52.138;5.236;2022-09-13T18:54:03;20.00;61.40
68215;DHT22;55036;52.138;5.236;2022-09-13T18:56:31;20.00;61.30
68215;DHT22;55036;52.138;5.236;2022-09-13T18:59:03;20.00;61.30
68215;DHT22;55036;52.138;5.236;2022-09-13T19:01:33;19.90;61.40
68215;DHT22;55036;52.138;5.236;2022-09-13T19:04:07;19.90;61.50
68215;DHT22;55036;52.138;5.236;2022-09-13T19:06:38;19.90;61.50
68215;DHT22;55036;52.138;5.236;2022-09-13T19:09:07;19.90;61.50
68215;DHT22;55036;52.138;5.236;2022-09-13T19:11:46;19.80;61.50
68215;DHT22;55036;52.138;5.236;2022-09-13T19:14:23;19.80;61.60
68215;DHT22;55036;52.138;5.236;2022-09-13T19:16:52;19.80;61.70
68215;DHT22;55036;52.138;5.236;2022-09-13T19:19:20;19.80;61.80
68215;DHT22;55036;52.138;5.236;2022-09-13T19:21:47;19.80;61.80
68215;DHT22;55036;52.138;5.236;2022-09-13T19:24:14;19.80;61.80
68215;DHT22;55036;52.138;5.236;2022-09-13T19:26:47;19.80;62.00
68215;DHT22;55036;52.138;5.236;2022-09-13T19:29:16;19.80;61.80
68215;DHT22;55036;52.138;5.236;2022-09-13T19:31:45;19.70;61.80
68215;DHT22;55036;52.138;5.236;2022-09-13T19:34:14;19.70;61.80
68215;DHT22;55036;52.138;5.236;2022-09-13T19:36:42;19.60;61.90
68215;DHT22;55036;52.138;5.236;2022-09-13T19:39:10;19.60;62.90
68215;DHT22;55036;52.138;5.236;2022-09-13T19:41:37;19.50;61.90
68215;DHT22;55036;52.138;5.236;2022-09-13T19:44:04;19.60;62.10
68215;DHT22;55036;52.138;5.236;2022-09-13T19:46:35;19.60;62.20
68215;DHT22;55036;52.138;5.236;2022-09-13T19:49:03;19.60;62.20
68215;DHT22;55036;52.138;5.236;2022-09-13T19:51:33;19.60;62.10